createdAt,value
2023-01-07T00:00:35.405Z,7.77
2023-01-07T00:03:37.879Z,7.80
2023-01-07T00:06:42.087Z,7.80
2023-01-07T00:09:43.498Z,7.76
2023-01-07T00:12:44.927Z,7.79
2023-01-07T00:15:46.496Z,7.85
2023-01-07T00:18:48.125Z,7.87
2023-01-07T00:21:49.634Z,7.87
2023-01-07T00:24:51.199Z,7.88
2023-01-07T00:27:52.743Z,7.86
2023-01-07T00:31:00.061Z,7.82
2023-01-07T00:34:01.967Z,7.83
2023-01-07T00:37:21.958Z,7.84
2023-01-07T00:40:23.783Z,7.85
2023-01-07T00:43:25.681Z,7.84
2023-01-07T00:46:27.464Z,7.82
2023-01-07T00:49:29.620Z,7.77
2023-01-07T00:52:31.128Z,7.80
2023-01-07T00:55:33.311Z,7.83
2023-01-07T00:58:34.968Z,7.80
2023-01-07T01:01:36.647Z,7.79
2023-01-07T01:04:38.246Z,7.79
2023-01-07T01:07:40.487Z,7.76
2023-01-07T01:10:41.966Z,7.74
2023-01-07T01:13:44.952Z,7.77
2023-01-07T01:16:46.521Z,7.74
2023-01-07T01:19:48.030Z,7.75
2023-01-07T01:22:49.543Z,7.74
2023-01-07T01:25:51.075Z,7.74
2023-01-07T01:28:52.646Z,7.74
2023-01-07T01:31:58.022Z,7.77
2023-01-07T01:34:59.695Z,7.77
2023-01-07T01:38:01.857Z,7.73
2023-01-07T01:41:07.405Z,7.75
2023-01-07T01:44:29.139Z,7.72
2023-01-07T01:47:49.223Z,7.69
2023-01-07T01:50:52.342Z,7.67
2023-01-07T01:53:56.085Z,7.67
2023-01-07T01:57:00.378Z,7.69
2023-01-07T02:00:02.854Z,7.72
2023-01-07T02:03:18.147Z,7.72
2023-01-07T02:06:27.080Z,7.74
2023-01-07T02:09:30.260Z,7.77
2023-01-07T02:12:42.897Z,7.79
2023-01-07T02:16:13.587Z,7.75
2023-01-07T02:19:53.596Z,7.64
2023-01-07T02:23:22.629Z,7.67
2023-01-07T02:26:56.988Z,7.69
2023-01-07T02:30:22.903Z,7.70
2023-01-07T02:33:28.719Z,7.67
2023-01-07T02:36:49.988Z,7.65
2023-01-07T02:39:58.601Z,7.71
2023-01-07T02:43:16.370Z,7.74
2023-01-07T02:46:48.335Z,7.75
2023-01-07T02:49:50.044Z,7.77
2023-01-07T02:52:52.232Z,7.77
2023-01-07T02:56:05.869Z,7.75
2023-01-07T02:59:14.640Z,7.76
2023-01-07T03:02:42.486Z,7.76
2023-01-07T03:06:24.448Z,7.76
2023-01-07T03:09:28.006Z,7.75
2023-01-07T03:13:08.661Z,7.74
2023-01-07T03:16:18.314Z,7.67
2023-01-07T03:19:28.203Z,7.62
2023-01-07T03:22:33.116Z,7.68
2023-01-07T03:25:37.851Z,7.72
2023-01-07T03:28:42.451Z,7.71
2023-01-07T03:32:13.808Z,7.69
2023-01-07T03:35:15.853Z,7.72
2023-01-07T03:38:20.791Z,7.67
2023-01-07T03:41:41.085Z,7.66
2023-01-07T03:44:42.717Z,7.68
2023-01-07T03:47:47.634Z,7.65
2023-01-07T03:50:49.639Z,7.65
2023-01-07T03:53:51.559Z,7.67
2023-01-07T03:56:53.147Z,7.65
2023-01-07T03:59:55.874Z,7.65
2023-01-07T04:02:57.481Z,7.63
2023-01-07T04:06:06.447Z,7.65
2023-01-07T04:09:08.076Z,7.66
2023-01-07T04:12:09.926Z,7.66
2023-01-07T04:15:11.644Z,7.66
2023-01-07T04:18:13.317Z,7.67
2023-01-07T04:21:14.908Z,7.66
2023-01-07T04:24:16.638Z,7.60
2023-01-07T04:27:18.682Z,7.57
2023-01-07T04:30:20.362Z,7.57
2023-01-07T04:33:21.915Z,7.58
2023-01-07T04:36:23.782Z,7.50
2023-01-07T04:39:25.339Z,7.49
2023-01-07T04:42:27.740Z,7.45
2023-01-07T04:45:29.355Z,7.43
2023-01-07T04:48:31.953Z,7.44
2023-01-07T04:51:34.472Z,7.41
2023-01-07T04:54:36.104Z,7.31
2023-01-07T04:57:38.908Z,7.33
2023-01-07T05:00:41.424Z,7.35
2023-01-07T05:03:43.244Z,7.35
2023-01-07T05:06:44.766Z,7.42
2023-01-07T05:09:47.515Z,7.39
2023-01-07T05:12:50.231Z,7.40
2023-01-07T05:15:53.354Z,7.38
2023-01-07T05:18:55.469Z,7.31
2023-01-07T05:21:57.216Z,7.28
2023-01-07T05:24:58.712Z,7.32
2023-01-07T05:28:02.114Z,7.34
2023-01-07T05:31:05.737Z,7.33
2023-01-07T05:34:08.473Z,7.29
2023-01-07T05:37:10.349Z,7.23
2023-01-07T05:40:13.659Z,7.24
2023-01-07T05:43:16.063Z,7.24
2023-01-07T05:46:17.766Z,7.22
2023-01-07T05:49:19.325Z,7.17
2023-01-07T05:52:20.829Z,7.17
2023-01-07T05:55:22.334Z,7.17
2023-01-07T05:58:24.354Z,7.12
2023-01-07T06:01:25.921Z,7.08
2023-01-07T06:04:28.105Z,7.01
2023-01-07T06:07:29.662Z,7.01
2023-01-07T06:10:31.187Z,6.98
2023-01-07T06:13:33.361Z,6.91
2023-01-07T06:16:35.383Z,6.89
2023-01-07T06:19:36.993Z,6.92
2023-01-07T06:22:38.439Z,6.89
2023-01-07T06:25:39.896Z,6.80
2023-01-07T06:28:41.393Z,6.78
2023-01-07T06:31:42.941Z,6.74
2023-01-07T06:34:44.380Z,6.64
2023-01-07T06:37:45.901Z,6.48
2023-01-07T06:40:47.420Z,6.34
2023-01-07T06:43:48.999Z,6.20
2023-01-07T06:46:50.637Z,6.11
2023-01-07T06:49:52.793Z,6.03
2023-01-07T06:52:54.296Z,5.96
2023-01-07T06:55:55.732Z,5.78
2023-01-07T06:58:57.285Z,5.69
2023-01-07T07:01:58.832Z,5.50
2023-01-07T07:05:00.499Z,5.40
2023-01-07T07:08:02.042Z,5.32
2023-01-07T07:11:03.668Z,5.27
2023-01-07T07:14:05.259Z,5.17
2023-01-07T07:17:06.782Z,5.13
2023-01-07T07:20:08.929Z,5.09
2023-01-07T07:23:10.350Z,5.03
2023-01-07T07:26:12.051Z,4.99
2023-01-07T07:29:13.502Z,4.93
2023-01-07T07:32:14.985Z,4.99
2023-01-07T07:35:16.562Z,5.15
2023-01-07T07:38:18.993Z,5.24
2023-01-07T07:41:21.377Z,5.21
2023-01-07T07:44:23.033Z,5.20
2023-01-07T07:47:24.559Z,5.18
2023-01-07T07:50:26.186Z,5.11
2023-01-07T07:53:27.749Z,5.19
2023-01-07T07:56:29.413Z,5.27
2023-01-07T07:59:30.962Z,5.30
2023-01-07T08:02:32.461Z,5.38
2023-01-07T08:05:34.088Z,5.40
2023-01-07T08:08:35.577Z,5.38
2023-01-07T08:11:37.076Z,5.40
2023-01-07T08:14:38.539Z,5.44
2023-01-07T08:17:40.010Z,5.49
2023-01-07T08:20:41.545Z,5.52
2023-01-07T08:23:43.180Z,5.65
2023-01-07T08:26:44.717Z,5.66
2023-01-07T08:29:46.334Z,5.63
2023-01-07T08:32:48.300Z,5.71
2023-01-07T08:35:49.826Z,5.87
2023-01-07T08:38:55.084Z,5.97
2023-01-07T08:41:56.602Z,6.03
2023-01-07T08:44:58.105Z,6.17
2023-01-07T08:48:00.580Z,6.22
2023-01-07T08:51:02.103Z,6.23
2023-01-07T08:54:03.805Z,6.28
2023-01-07T08:57:05.297Z,6.28
2023-01-07T09:00:07.731Z,6.36
2023-01-07T09:03:09.352Z,6.48
2023-01-07T09:06:10.973Z,6.53
2023-01-07T09:09:14.380Z,6.61
2023-01-07T09:12:15.863Z,6.65
2023-01-07T09:15:17.568Z,6.73
2023-01-07T09:18:20.397Z,6.82
2023-01-07T09:21:21.904Z,6.83
2023-01-07T09:24:23.418Z,6.83
2023-01-07T09:27:26.787Z,6.93
2023-01-07T09:30:28.472Z,7.06
2023-01-07T09:33:30.182Z,7.15
2023-01-07T09:36:31.662Z,7.26
2023-01-07T09:39:33.227Z,7.36
2023-01-07T09:47:18.986Z,7.50
2023-01-07T09:50:37.970Z,7.58
2023-01-07T09:53:41.389Z,7.69
2023-01-07T09:56:42.987Z,7.78
2023-01-07T09:59:45.302Z,7.88
2023-01-07T10:02:55.905Z,7.98
2023-01-07T10:06:09.811Z,8.04
2023-01-07T10:09:29.549Z,8.14
2023-01-07T10:12:54.133Z,8.19
2023-01-07T10:16:01.213Z,8.31
2023-01-07T10:19:05.784Z,8.42
2023-01-07T10:22:22.603Z,8.47
2023-01-07T10:25:32.114Z,8.59
2023-01-07T10:28:44.229Z,8.71
2023-01-07T10:31:46.844Z,8.88
2023-01-07T10:34:51.167Z,9.02
2023-01-07T10:38:26.839Z,9.11
2023-01-07T10:42:13.635Z,9.22
2023-01-07T10:45:36.562Z,9.36
2023-01-07T10:49:02.701Z,9.52
2023-01-07T10:52:51.610Z,9.68
2023-01-07T11:05:22.690Z,10.16
2023-01-07T11:08:32.467Z,10.30
2023-01-07T11:11:34.023Z,10.38
2023-01-07T11:14:40.893Z,10.49
2023-01-07T11:17:52.146Z,10.64
2023-01-07T11:20:55.989Z,10.79
2023-01-07T11:23:58.435Z,10.91
2023-01-07T11:27:15.739Z,10.99
2023-01-07T11:30:26.191Z,11.11
2023-01-07T11:34:03.419Z,11.29
2023-01-07T11:36:59.321Z,11.37
2023-01-07T11:40:05.255Z,11.49
2023-01-07T11:43:30.904Z,11.61
2023-01-07T11:46:33.113Z,11.72
2023-01-07T11:49:43.767Z,11.70
2023-01-07T11:52:55.936Z,11.70
2023-01-07T11:55:57.457Z,11.71
2023-01-07T11:59:20.740Z,11.78
2023-01-07T12:02:25.760Z,11.88
2023-01-07T12:05:28.143Z,12.00
2023-01-07T12:08:29.803Z,12.06
2023-01-07T12:11:34.097Z,12.08
2023-01-07T12:14:38.960Z,12.13
2023-01-07T12:17:46.106Z,12.10
2023-01-07T12:21:09.868Z,12.18
2023-01-07T12:24:36.380Z,12.30
2023-01-07T12:27:50.472Z,12.35
2023-01-07T12:31:19.744Z,12.43
2023-01-07T12:34:47.139Z,12.47
2023-01-07T12:38:14.963Z,12.50
2023-01-07T12:41:27.255Z,12.60
2023-01-07T12:44:28.837Z,12.62
2023-01-07T12:47:38.313Z,12.58
2023-01-07T12:50:47.998Z,12.59
2023-01-07T12:54:26.686Z,12.61
2023-01-07T12:57:36.729Z,12.66
2023-01-07T13:00:54.355Z,12.70
2023-01-07T13:04:28.136Z,12.79
2023-01-07T13:07:37.853Z,12.88
2023-01-07T13:10:43.129Z,12.96
2023-01-07T13:13:49.708Z,13.00
2023-01-07T13:16:51.246Z,13.01
2023-01-07T13:19:53.543Z,13.13
2023-01-07T13:22:56.675Z,13.18
2023-01-07T13:26:32.594Z,13.15
2023-01-07T13:29:58.480Z,13.02
2023-01-07T13:33:26.321Z,12.98
2023-01-07T13:36:39.827Z,13.21
2023-01-07T13:39:53.480Z,13.36
2023-01-07T13:42:59.786Z,13.44
2023-01-07T13:46:12.042Z,13.40
2023-01-07T13:49:29.126Z,13.34
2023-01-07T13:52:33.407Z,13.31
2023-01-07T13:55:40.904Z,13.23
2023-01-07T13:58:53.516Z,13.14
2023-01-07T14:02:16.257Z,13.04
2023-01-07T14:05:17.771Z,12.96
2023-01-07T14:08:28.369Z,12.95
2023-01-07T14:11:29.897Z,12.91
2023-01-07T14:14:49.425Z,12.70
2023-01-07T14:18:28.450Z,12.43
2023-01-07T14:21:56.571Z,12.21
2023-01-07T14:25:22.144Z,12.06
2023-01-07T14:28:52.859Z,12.10
2023-01-07T14:32:18.434Z,12.13
2023-01-07T14:35:32.371Z,12.18
2023-01-07T14:38:33.809Z,12.23
2023-01-07T14:41:35.403Z,12.26
2023-01-07T14:44:36.952Z,12.25
2023-01-07T14:47:41.214Z,12.18
2023-01-07T14:50:57.094Z,12.07
2023-01-07T14:54:32.719Z,12.05
2023-01-07T14:57:49.466Z,11.99
2023-01-07T15:01:00.200Z,11.91
2023-01-07T15:04:34.693Z,11.82
2023-01-07T15:07:40.021Z,11.77
2023-01-07T15:11:02.346Z,11.63
2023-01-07T15:14:33.116Z,11.60
2023-01-07T15:17:38.992Z,11.52
2023-01-07T15:20:49.638Z,11.51
2023-01-07T15:24:19.378Z,11.47
2023-01-07T15:27:29.753Z,11.30
2023-01-07T15:30:41.089Z,11.09
2023-01-07T15:34:04.006Z,10.94
2023-01-07T15:37:07.356Z,10.69
2023-01-07T15:40:16.321Z,10.34
2023-01-07T15:43:23.735Z,9.96
2023-01-07T15:46:27.108Z,9.59
2023-01-07T15:49:29.678Z,9.29
2023-01-07T15:52:31.298Z,9.06
2023-01-07T15:55:38.556Z,8.88
2023-01-07T15:58:45.790Z,8.72
2023-01-07T16:01:49.503Z,8.59
2023-01-07T16:04:59.605Z,8.44
2023-01-07T16:08:01.587Z,8.26
2023-01-07T16:11:09.080Z,8.09
2023-01-07T16:14:35.517Z,7.99
2023-01-07T16:17:49.946Z,7.71
2023-01-07T16:20:54.693Z,7.64
2023-01-07T16:23:56.463Z,7.58
2023-01-07T16:27:04.804Z,7.48
2023-01-07T16:30:15.157Z,7.38
2023-01-07T16:33:21.281Z,7.23
2023-01-07T16:36:28.318Z,7.13
2023-01-07T16:39:33.570Z,7.14
2023-01-07T16:42:35.067Z,7.06
2023-01-07T16:45:37.072Z,6.96
2023-01-07T16:48:38.509Z,6.81
2023-01-07T16:51:47.979Z,6.76
2023-01-07T16:54:50.132Z,6.64
2023-01-07T16:57:51.731Z,6.62
2023-01-07T17:00:56.155Z,6.52
2023-01-07T17:04:01.295Z,6.40
2023-01-07T17:11:52.107Z,6.32
2023-01-07T17:14:53.801Z,6.40
2023-01-07T17:18:15.175Z,6.34
2023-01-07T17:21:38.507Z,6.39
2023-01-07T17:24:39.966Z,6.25
2023-01-07T17:27:51.859Z,6.16
2023-01-07T17:30:53.607Z,6.19
2023-01-07T17:33:55.873Z,6.18
2023-01-07T17:36:57.416Z,6.12
2023-01-07T17:39:58.981Z,6.11
2023-01-07T17:43:18.767Z,6.08
2023-01-07T17:46:20.392Z,6.05
2023-01-07T17:49:22.066Z,5.96
2023-01-07T17:52:23.765Z,5.79
2023-01-07T17:55:28.996Z,5.72
2023-01-07T17:58:33.326Z,5.64
2023-01-07T18:01:35.045Z,5.65
2023-01-07T18:04:36.620Z,5.62
2023-01-07T18:07:38.229Z,5.59
2023-01-07T18:10:58.246Z,5.50
2023-01-07T18:14:00.117Z,5.58
2023-01-07T18:17:01.657Z,5.58
2023-01-07T18:20:03.304Z,5.57
2023-01-07T18:23:04.801Z,5.52
2023-01-07T18:26:07.254Z,5.39
2023-01-07T18:29:10.981Z,5.46
2023-01-07T18:32:12.508Z,5.51
2023-01-07T18:35:14.555Z,5.47
2023-01-07T18:38:16.500Z,5.46
2023-01-07T18:41:18.112Z,5.36
2023-01-07T18:44:21.742Z,5.43
2023-01-07T18:47:23.289Z,5.42
2023-01-07T18:50:24.861Z,5.35
2023-01-07T18:53:27.307Z,5.39
2023-01-07T18:56:28.907Z,5.36
2023-01-07T18:59:30.422Z,5.23
2023-01-07T19:02:31.992Z,5.08
2023-01-07T19:05:33.614Z,4.98
2023-01-07T19:08:35.245Z,4.91
2023-01-07T19:11:38.312Z,4.92
2023-01-07T19:14:40.580Z,4.95
2023-01-07T19:17:42.115Z,4.95
2023-01-07T19:20:43.625Z,4.82
2023-01-07T19:23:47.053Z,4.78
2023-01-07T19:26:48.839Z,4.65
2023-01-07T19:29:50.398Z,4.70
2023-01-07T19:32:53.163Z,4.66
2023-01-07T19:36:04.965Z,4.60
2023-01-07T19:39:06.517Z,4.54
2023-01-07T19:42:09.864Z,4.49
2023-01-07T19:45:11.569Z,4.34
2023-01-07T19:48:13.131Z,4.24
2023-01-07T19:51:14.777Z,4.13
2023-01-07T19:54:17.366Z,4.13
2023-01-07T19:57:18.876Z,4.22
2023-01-07T20:00:20.385Z,4.19
2023-01-07T20:03:21.893Z,4.08
2023-01-07T20:06:29.227Z,4.12
2023-01-07T20:09:30.839Z,4.10
2023-01-07T20:12:33.025Z,4.04
2023-01-07T20:15:34.630Z,3.97
2023-01-07T20:18:40.632Z,4.02
2023-01-07T20:21:42.259Z,4.08
2023-01-07T20:24:43.753Z,4.07
2023-01-07T20:27:45.278Z,4.00
2023-01-07T20:30:46.877Z,3.88
2023-01-07T20:33:50.346Z,3.90
2023-01-07T20:36:51.961Z,3.88
2023-01-07T20:39:56.885Z,3.82
2023-01-07T20:42:58.351Z,3.88
2023-01-07T20:46:02.212Z,4.00
2023-01-07T20:49:03.751Z,4.08
2023-01-07T20:52:05.491Z,4.08
2023-01-07T20:55:07.374Z,4.01
2023-01-07T20:58:08.930Z,3.87
2023-01-07T21:01:19.090Z,3.80
2023-01-07T21:04:20.671Z,3.84
2023-01-07T21:07:22.169Z,3.86
2023-01-07T21:10:23.670Z,3.90
2023-01-07T21:13:25.662Z,3.93
2023-01-07T21:16:28.481Z,3.95
2023-01-07T21:19:30.016Z,3.96
2023-01-07T21:22:31.517Z,4.02
2023-01-07T21:25:33.041Z,3.94
2023-01-07T21:28:35.516Z,3.92
2023-01-07T21:31:37.061Z,3.91
2023-01-07T21:34:38.588Z,3.87
2023-01-07T21:37:40.159Z,3.81
2023-01-07T21:40:41.719Z,3.85
2023-01-07T21:43:44.254Z,3.85
2023-01-07T21:46:45.813Z,3.78
2023-01-07T21:49:47.355Z,3.72
2023-01-07T21:52:48.945Z,3.65
2023-01-07T21:55:54.502Z,3.69
2023-01-07T21:58:56.022Z,3.60
2023-01-07T22:01:57.783Z,3.58
2023-01-07T22:04:59.370Z,3.64
2023-01-07T22:08:01.305Z,3.73
2023-01-07T22:11:02.962Z,3.75
2023-01-07T22:14:04.510Z,3.82
2023-01-07T22:17:07.510Z,3.80
2023-01-07T22:20:09.797Z,3.78
2023-01-07T22:23:17.363Z,3.65
2023-01-07T22:26:19.880Z,3.60
2023-01-07T22:29:21.624Z,3.61
2023-01-07T22:32:23.121Z,3.59
2023-01-07T22:35:24.910Z,3.58
2023-01-07T22:38:27.837Z,3.52
2023-01-07T22:41:31.396Z,3.49
2023-01-07T22:44:42.771Z,3.40
2023-01-07T22:47:48.349Z,3.36
2023-01-07T22:50:53.347Z,3.28
2023-01-07T22:53:57.880Z,3.31
2023-01-07T22:57:00.119Z,3.34
2023-01-07T23:00:02.178Z,3.34
2023-01-07T23:03:04.714Z,3.28
2023-01-07T23:06:06.493Z,3.31
2023-01-07T23:09:08.014Z,3.29
2023-01-07T23:12:11.039Z,3.26
2023-01-07T23:15:13.146Z,3.20
2023-01-07T23:18:14.837Z,3.11
2023-01-07T23:21:16.360Z,3.09
2023-01-07T23:24:18.524Z,3.12
2023-01-07T23:27:20.067Z,3.19
2023-01-07T23:30:21.805Z,3.14
2023-01-07T23:33:23.309Z,3.18
2023-01-07T23:36:24.948Z,3.30
2023-01-07T23:39:26.461Z,3.24
2023-01-07T23:42:28.118Z,3.22
2023-01-07T23:45:29.674Z,3.32
2023-01-07T23:48:34.167Z,3.31
2023-01-07T23:51:35.652Z,3.21
2023-01-07T23:54:37.089Z,3.07
2023-01-07T23:57:38.561Z,3.10
